Date,TemperatureHighF,TemperatureAvgF,TemperatureLowF,DewpointHighF,DewpointAvgF,DewpointLowF,HumidityHigh,HumidityAvg,HumidityLow,PressureMaxIn,PressureMinIn,WindSpeedMaxMPH,WindSpeedAvgMPH,GustSpeedMaxMPH,PrecipitationSumIn
2013-9-1,94,78,72,81,75,71,99,92,63,29.29,29.21,12,2,12,0.21
2013-9-2,85,75,71,80,74,64,99,96,78,29.24,29.14,11,2,11,0.22
2013-9-3,86,75,64,75,67,60,99,80,47,29.34,29.15,15,4,15,0.00
2013-9-4,86,71,58,64,62,58,99,76,47,29.46,29.33,15,4,15,0.00
2013-9-5,81,69,55,66,58,47,99,74,38,29.60,29.38,19,5,19,0.00
2013-9-6,79,63,48,52,49,42,99,67,35,29.70,29.58,9,3,9,0.00
2013-9-7,84,65,46,62,53,46,99,72,35,29.58,29.34,12,2,12,0.00
2013-9-8,86,71,58,70,61,49,99,73,44,29.52,29.26,19,5,19,0.00
2013-9-9,80,66,49,64,56,48,99,73,49,29.68,29.52,10,2,10,0.00
2013-9-10,91,77,66,79,73,64,99,89,66,29.60,29.48,11,3,11,0.00
2013-9-11,97,86,73,83,78,73,99,80,58,29.55,29.41,12,3,12,0.00
2013-9-12,90,80,70,80,76,70,99,89,70,29.43,29.12,23,2,23,0.02
2013-9-13,78,69,57,67,60,52,90,73,57,29.32,29.11,20,8,20,0.05
2013-9-14,68,58,48,53,50,48,99,77,58,29.59,29.31,18,6,18,0.00
2013-9-15,79,60,42,57,50,42,99,76,41,29.67,29.52,12,3,12,0.00
2013-9-16,76,61,53,63,56,52,99,86,60,29.69,29.47,17,3,17,0.07
2013-9-17,76,58,44,52,45,40,99,68,34,29.88,29.68,18,3,18,0.00
2013-9-18,79,58,40,54,47,40,99,73,33,29.80,29.62,9,2,9,0.00
2013-9-19,83,62,44,59,51,43,99,74,37,29.64,29.50,11,2,11,0.00
2013-9-20,86,67,47,66,58,46,99,78,43,29.53,29.40,7,2,7,0.00
2013-9-21,83,65,54,70,59,53,99,86,46,29.45,29.10,15,3,15,0.67
2013-9-22,73,64,54,64,53,45,99,72,45,29.37,29.09,19,7,19,0.24
2013-9-23,69,58,48,49,46,44,89,68,49,29.50,29.37,18,6,18,0.00
2013-9-24,80,59,39,52,48,39,99,71,37,29.51,29.32,15,4,15,0.00
2013-9-25,81,61,43,55,50,43,99,72,42,29.41,29.31,8,2,8,0.00
2013-9-26,81,61,48,63,56,47,99,86,54,29.53,29.37,14,2,14,0.00
2013-9-27,78,62,52,59,56,52,99,82,45,29.70,29.53,11,2,11,0.00
2013-9-28,83,64,53,60,56,50,99,78,39,29.76,29.67,8,2,8,0.00
2013-9-29,82,62,48,63,56,47,99,84,48,29.68,29.51,10,2,10,0.00
2013-9-30,84,62,45,59,53,45,99,78,38,29.53,29.41,8,2,8,0.00